createdAt,value
2019-02-21T00:02:20.915Z,4.00
2019-02-21T00:04:49.119Z,4.00
2019-02-21T00:07:17.590Z,4.00
2019-02-21T00:09:45.683Z,3.90
2019-02-21T00:12:13.656Z,3.90
2019-02-21T00:14:42.029Z,3.90
2019-02-21T00:17:10.089Z,3.90
2019-02-21T00:19:38.613Z,3.80
2019-02-21T00:22:06.649Z,3.80
2019-02-21T00:24:34.935Z,3.80
2019-02-21T00:27:03.210Z,3.80
2019-02-21T00:29:31.470Z,3.80
2019-02-21T00:31:59.471Z,3.70
2019-02-21T00:34:27.811Z,3.70
2019-02-21T00:36:56.201Z,3.70
2019-02-21T00:39:24.601Z,3.70
2019-02-21T00:41:52.629Z,3.70
2019-02-21T00:44:20.845Z,3.60
2019-02-21T00:46:48.788Z,3.60
2019-02-21T00:49:17.477Z,3.50
2019-02-21T00:51:45.354Z,3.50
2019-02-21T00:54:13.214Z,3.50
2019-02-21T00:56:41.913Z,3.40
2019-02-21T00:59:10.271Z,3.30
2019-02-21T01:01:38.857Z,3.30
2019-02-21T01:04:07.153Z,3.30
2019-02-21T01:06:35.316Z,3.20
2019-02-21T01:09:04.833Z,3.20
2019-02-21T01:11:32.893Z,3.20
2019-02-21T01:14:00.666Z,3.10
2019-02-21T01:16:28.835Z,3.10
2019-02-21T01:18:56.887Z,3.10
2019-02-21T01:21:25.030Z,3.10
2019-02-21T01:23:53.640Z,3.10
2019-02-21T01:26:21.626Z,3.10
2019-02-21T01:28:49.797Z,3.10
2019-02-21T01:31:18.161Z,3.10
2019-02-21T01:33:46.258Z,3.10
2019-02-21T01:36:14.613Z,3.00
2019-02-21T01:38:42.988Z,2.90
2019-02-21T01:41:11.711Z,3.00
2019-02-21T01:43:40.058Z,3.00
2019-02-21T01:46:08.887Z,3.00
2019-02-21T01:48:37.129Z,3.00
2019-02-21T01:51:05.195Z,2.90
2019-02-21T01:53:33.069Z,2.90
2019-02-21T01:56:01.340Z,3.00
2019-02-21T01:58:29.710Z,3.00
2019-02-21T02:01:07.644Z,2.90
2019-02-21T02:03:28.435Z,2.70
2019-02-21T02:05:56.286Z,2.70
2019-02-21T02:08:24.496Z,2.70
2019-02-21T02:10:52.431Z,2.70
2019-02-21T02:13:24.485Z,2.60
2019-02-21T02:15:51.926Z,2.60
2019-02-21T02:18:20.342Z,2.70
2019-02-21T02:20:49.021Z,2.70
2019-02-21T02:23:17.085Z,2.80
2019-02-21T02:25:45.777Z,2.70
2019-02-21T02:28:13.846Z,2.70
2019-02-21T02:30:42.010Z,2.50
2019-02-21T02:33:09.995Z,2.50
2019-02-21T02:35:38.358Z,2.50
2019-02-21T02:38:06.776Z,2.60
2019-02-21T02:40:34.811Z,2.60
2019-02-21T02:43:02.997Z,2.60
2019-02-21T02:45:30.968Z,2.60
2019-02-21T02:47:59.639Z,2.70
2019-02-21T02:50:27.731Z,2.70
2019-02-21T02:52:56.112Z,2.70
2019-02-21T02:55:43.492Z,2.60
2019-02-21T02:58:11.597Z,2.70
2019-02-21T03:00:39.656Z,2.60
2019-02-21T03:03:07.742Z,2.50
2019-02-21T03:05:36.148Z,2.50
2019-02-21T03:08:04.317Z,2.50
2019-02-21T03:10:32.257Z,2.50
2019-02-21T03:13:00.623Z,2.50
2019-02-21T03:15:28.711Z,2.50
2019-02-21T03:17:57.382Z,2.50
2019-02-21T03:20:25.597Z,2.50
2019-02-21T03:22:53.877Z,2.50
2019-02-21T03:25:21.905Z,2.50
2019-02-21T03:27:50.311Z,2.40
2019-02-21T03:30:18.766Z,2.40
2019-02-21T03:32:47.164Z,2.40
2019-02-21T03:35:15.726Z,2.30
2019-02-21T03:37:44.411Z,2.30
2019-02-21T03:40:12.921Z,2.30
2019-02-21T03:42:40.990Z,2.20
2019-02-21T03:45:09.975Z,2.10
2019-02-21T03:47:38.256Z,2.10
2019-02-21T03:50:07.010Z,2.10
2019-02-21T03:52:35.354Z,2.10
2019-02-21T03:55:03.478Z,2.10
2019-02-21T03:57:31.476Z,2.10
2019-02-21T03:59:59.810Z,2.10
2019-02-21T04:02:28.002Z,2.00
2019-02-21T04:04:56.240Z,2.00
2019-02-21T04:07:24.372Z,2.00
2019-02-21T04:09:52.542Z,1.90
2019-02-21T04:12:20.478Z,1.90
2019-02-21T04:14:48.859Z,1.80
2019-02-21T04:17:17.297Z,1.80
2019-02-21T04:19:45.409Z,1.80
2019-02-21T04:22:14.119Z,1.80
2019-02-21T04:24:42.211Z,1.90
2019-02-21T04:27:10.612Z,1.90
2019-02-21T04:29:42.003Z,1.90
2019-02-21T04:32:24.009Z,1.80
2019-02-21T04:34:52.324Z,1.80
2019-02-21T04:37:20.573Z,1.70
2019-02-21T04:39:48.459Z,1.70
2019-02-21T04:42:16.462Z,1.70
2019-02-21T04:44:45.172Z,1.60
2019-02-21T04:47:13.483Z,1.50
2019-02-21T04:49:42.806Z,1.50
2019-02-21T04:52:10.950Z,1.40
2019-02-21T04:54:39.299Z,1.30
2019-02-21T04:57:07.505Z,1.40
2019-02-21T04:59:35.844Z,1.50
2019-02-21T05:02:04.120Z,1.50
2019-02-21T05:04:32.237Z,1.50
2019-02-21T05:07:00.270Z,1.50
2019-02-21T05:09:28.341Z,1.40
2019-02-21T05:11:56.651Z,1.40
2019-02-21T05:14:24.796Z,1.30
2019-02-21T05:16:53.127Z,1.30
2019-02-21T05:19:21.546Z,1.20
2019-02-21T05:21:50.137Z,1.20
2019-02-21T05:24:18.262Z,1.20
2019-02-21T05:26:50.659Z,1.20
2019-02-21T05:29:18.461Z,1.10
2019-02-21T05:32:04.897Z,1.00
2019-02-21T05:34:40.696Z,1.00
2019-02-21T05:37:29.064Z,1.10
2019-02-21T05:40:28.337Z,1.20
2019-02-21T05:43:15.054Z,1.20
2019-02-21T05:46:01.317Z,1.20
2019-02-21T05:48:49.136Z,1.20
2019-02-21T05:51:36.421Z,1.20
2019-02-21T05:54:30.033Z,1.10
2019-02-21T05:57:17.654Z,1.10
2019-02-21T06:00:05.402Z,1.10
2019-02-21T06:02:53.530Z,1.00
2019-02-21T06:05:30.391Z,1.00
2019-02-21T06:08:17.658Z,1.00
2019-02-21T06:11:18.140Z,1.10
2019-02-21T06:14:12.513Z,1.10
2019-02-21T06:16:49.781Z,1.10
2019-02-21T06:19:49.864Z,1.10
2019-02-21T06:22:30.176Z,1.00
2019-02-21T06:25:30.037Z,1.10
2019-02-21T06:28:14.163Z,1.10
2019-02-21T06:31:07.603Z,1.10
2019-02-21T06:33:35.697Z,1.00
2019-02-21T06:36:03.949Z,1.00
2019-02-21T06:38:33.638Z,1.00
2019-02-21T06:41:02.024Z,1.00
2019-02-21T06:43:30.698Z,1.00
2019-02-21T06:45:59.162Z,1.00
2019-02-21T06:48:27.797Z,1.00
2019-02-21T06:50:57.017Z,1.00
2019-02-21T06:53:25.669Z,1.10
2019-02-21T06:55:54.389Z,1.10
2019-02-21T06:58:22.552Z,1.20
2019-02-21T07:00:50.620Z,1.30
2019-02-21T07:03:19.967Z,1.50
2019-02-21T07:05:48.029Z,1.70
2019-02-21T07:08:16.730Z,1.80
2019-02-21T07:10:45.339Z,2.00
2019-02-21T07:13:13.425Z,2.20
2019-02-21T07:15:41.289Z,2.50
2019-02-21T07:18:11.233Z,2.90
2019-02-21T07:20:39.978Z,3.60
2019-02-21T07:23:08.292Z,4.20
2019-02-21T07:25:47.114Z,4.90
2019-02-21T07:28:16.125Z,5.50
2019-02-21T07:30:44.649Z,6.20
2019-02-21T07:33:12.394Z,6.70
2019-02-21T07:35:40.133Z,7.20
2019-02-21T07:38:08.143Z,7.70
2019-02-21T07:40:36.463Z,8.30
2019-02-21T07:43:04.509Z,9.00
2019-02-21T07:45:36.051Z,9.60
2019-02-21T07:48:03.715Z,10.40
2019-02-21T07:50:32.130Z,11.00
2019-02-21T07:53:02.689Z,11.60
2019-02-21T07:55:30.084Z,12.00
2019-02-21T07:57:58.527Z,12.10
2019-02-21T08:00:26.855Z,12.10
2019-02-21T08:02:55.222Z,12.60
2019-02-21T08:05:23.898Z,13.10
2019-02-21T08:07:51.976Z,13.60
2019-02-21T08:10:25.751Z,14.00
2019-02-21T08:12:50.310Z,14.30
2019-02-21T08:15:18.992Z,14.80
2019-02-21T08:17:47.051Z,15.40
2019-02-21T08:20:15.407Z,15.70
2019-02-21T08:22:43.813Z,16.00
2019-02-21T08:25:11.865Z,16.20
2019-02-21T08:27:42.425Z,16.70
2019-02-21T08:30:13.117Z,16.80
2019-02-21T08:32:59.185Z,17.60
2019-02-21T08:35:27.324Z,17.50
2019-02-21T08:37:55.867Z,17.60
2019-02-21T08:40:25.060Z,17.40
2019-02-21T08:42:53.258Z,17.20
2019-02-21T08:45:21.918Z,17.70
2019-02-21T08:47:50.132Z,18.10
2019-02-21T08:50:18.370Z,18.30
2019-02-21T08:52:46.449Z,18.40
2019-02-21T08:55:14.539Z,18.70
2019-02-21T08:57:43.254Z,19.00
2019-02-21T09:00:11.635Z,19.40
2019-02-21T09:02:46.411Z,19.20
2019-02-21T09:05:29.961Z,18.90
2019-02-21T09:08:04.241Z,19.80
2019-02-21T09:10:46.886Z,19.70
2019-02-21T09:13:23.913Z,19.80
2019-02-21T09:16:00.203Z,20.40
2019-02-21T09:18:36.803Z,20.70
2019-02-21T09:21:14.935Z,20.00
2019-02-21T09:23:51.126Z,19.60
2019-02-21T09:26:31.195Z,19.90
2019-02-21T09:28:59.494Z,20.70
2019-02-21T09:31:28.288Z,21.00
2019-02-21T09:33:56.154Z,21.10
2019-02-21T09:36:24.120Z,21.40
2019-02-21T09:38:53.113Z,21.30
2019-02-21T09:41:21.183Z,21.20
2019-02-21T09:43:51.118Z,21.90
2019-02-21T09:46:19.481Z,22.30
2019-02-21T09:48:47.908Z,22.50
2019-02-21T09:51:18.110Z,22.50
2019-02-21T09:53:46.145Z,23.10
2019-02-21T09:56:14.515Z,23.60
2019-02-21T09:58:42.932Z,23.60
2019-02-21T10:01:10.973Z,22.50
2019-02-21T10:03:39.675Z,21.80
2019-02-21T10:06:08.324Z,21.90
2019-02-21T10:08:36.338Z,22.30
2019-02-21T10:11:04.802Z,22.40
2019-02-21T10:13:32.994Z,22.60
2019-02-21T10:16:01.269Z,22.30
2019-02-21T10:18:29.329Z,22.90
2019-02-21T10:20:57.703Z,23.10
2019-02-21T10:23:26.464Z,23.30
2019-02-21T10:25:54.812Z,23.40
2019-02-21T10:28:23.428Z,23.50
2019-02-21T10:30:51.549Z,23.40
2019-02-21T10:33:19.239Z,23.40
2019-02-21T10:35:46.950Z,23.80
2019-02-21T10:38:14.631Z,24.00
2019-02-21T10:40:43.165Z,23.60
2019-02-21T10:43:11.277Z,23.40
2019-02-21T10:45:47.454Z,23.50
2019-02-21T10:48:09.863Z,23.40
2019-02-21T10:50:37.932Z,23.10
2019-02-21T10:53:05.989Z,23.00
2019-02-21T10:55:34.082Z,23.50
2019-02-21T10:58:01.993Z,23.90
2019-02-21T11:00:29.955Z,23.60
2019-02-21T11:02:58.170Z,23.20
2019-02-21T11:05:26.538Z,23.70
2019-02-21T11:07:54.740Z,23.60
2019-02-21T11:10:24.125Z,24.00
2019-02-21T11:12:52.744Z,24.50
2019-02-21T11:15:21.604Z,24.80
2019-02-21T11:17:50.082Z,25.10
2019-02-21T11:20:18.283Z,25.30
2019-02-21T11:22:46.209Z,25.60
2019-02-21T11:25:14.630Z,25.90
2019-02-21T11:27:42.669Z,25.50
2019-02-21T11:30:13.088Z,25.10
2019-02-21T11:32:41.585Z,25.20
2019-02-21T11:35:10.169Z,25.30
2019-02-21T11:37:43.275Z,25.30
2019-02-21T11:40:09.116Z,25.50
2019-02-21T11:42:36.942Z,25.90
2019-02-21T11:45:05.319Z,26.10
2019-02-21T11:47:33.110Z,26.60
2019-02-21T11:50:00.883Z,27.00
2019-02-21T11:52:29.026Z,26.90
2019-02-21T11:54:56.975Z,26.20
2019-02-21T11:57:25.333Z,26.30
2019-02-21T11:59:53.170Z,26.10
2019-02-21T12:02:21.324Z,25.90
2019-02-21T12:04:50.355Z,24.60
2019-02-21T12:07:18.272Z,24.80
2019-02-21T12:09:46.456Z,25.30
2019-02-21T12:12:14.150Z,25.50
2019-02-21T12:14:42.514Z,25.50
2019-02-21T12:17:11.186Z,25.40
2019-02-21T12:19:39.542Z,25.30
2019-02-21T12:22:07.722Z,25.40
2019-02-21T12:24:35.462Z,25.30
2019-02-21T12:27:04.033Z,25.20
2019-02-21T12:29:32.461Z,24.10
2019-02-21T12:32:00.608Z,24.10
2019-02-21T12:34:28.823Z,23.60
2019-02-21T12:36:56.503Z,22.90
2019-02-21T12:39:24.447Z,22.80
2019-02-21T12:41:52.795Z,22.00
2019-02-21T12:44:20.889Z,21.80
2019-02-21T12:46:49.167Z,19.40
2019-02-21T12:49:19.481Z,19.40
2019-02-21T12:51:47.601Z,19.40
2019-02-21T12:54:15.754Z,19.40
2019-02-21T12:56:43.681Z,18.80
2019-02-21T12:59:12.081Z,18.40
2019-02-21T13:01:40.513Z,18.30
2019-02-21T13:04:08.850Z,18.30
2019-02-21T13:06:36.897Z,18.00
2019-02-21T13:09:06.100Z,17.80
2019-02-21T13:11:35.580Z,17.60
2019-02-21T13:14:05.002Z,17.40
2019-02-21T13:16:33.554Z,17.40
2019-02-21T13:19:01.546Z,17.30
2019-02-21T13:21:29.941Z,17.10
2019-02-21T13:23:58.061Z,17.10
2019-02-21T13:26:26.693Z,17.10
2019-02-21T13:28:54.777Z,17.10
2019-02-21T13:31:23.247Z,17.00
2019-02-21T13:33:51.388Z,17.00
2019-02-21T13:36:19.072Z,17.00
2019-02-21T13:38:48.942Z,17.00
2019-02-21T13:41:20.394Z,16.90
2019-02-21T13:43:48.466Z,16.80
2019-02-21T13:46:16.782Z,16.80
2019-02-21T13:48:44.881Z,16.60
2019-02-21T13:51:12.931Z,16.50
2019-02-21T13:53:41.016Z,16.60
2019-02-21T13:56:08.713Z,16.70
2019-02-21T13:58:36.857Z,16.70
2019-02-21T14:01:05.337Z,16.70
2019-02-21T14:03:34.326Z,16.60
2019-02-21T14:06:03.822Z,16.60
2019-02-21T14:08:32.243Z,16.70
2019-02-21T14:11:00.228Z,16.70
2019-02-21T14:13:28.360Z,16.60
2019-02-21T14:15:56.215Z,16.50
2019-02-21T14:18:24.591Z,16.60
2019-02-21T14:20:53.078Z,16.60
2019-02-21T14:23:21.142Z,16.60
2019-02-21T14:25:49.469Z,16.50
2019-02-21T14:28:17.398Z,16.50
2019-02-21T14:30:45.982Z,16.50
2019-02-21T14:33:14.025Z,16.60
2019-02-21T14:35:45.466Z,16.60
2019-02-21T14:38:13.779Z,16.70
2019-02-21T14:40:41.953Z,16.80
2019-02-21T14:43:10.702Z,16.90
2019-02-21T14:45:40.539Z,16.80
2019-02-21T14:48:08.605Z,16.80
2019-02-21T14:50:36.975Z,16.80
2019-02-21T14:53:05.383Z,16.80
2019-02-21T14:55:33.530Z,16.80
2019-02-21T14:58:01.554Z,16.80
2019-02-21T15:00:29.340Z,16.80
2019-02-21T15:02:57.848Z,16.80
2019-02-21T15:05:26.347Z,16.90
2019-02-21T15:07:54.111Z,16.90
2019-02-21T15:10:22.470Z,16.80
2019-02-21T15:12:50.674Z,16.80
2019-02-21T15:15:21.759Z,16.80
2019-02-21T15:17:49.169Z,16.70
2019-02-21T15:20:17.231Z,16.70
2019-02-21T15:22:45.114Z,16.70
2019-02-21T15:25:13.085Z,16.70
2019-02-21T15:27:41.238Z,16.70
2019-02-21T15:30:11.797Z,16.70
2019-02-21T15:32:39.721Z,16.70
2019-02-21T15:35:08.002Z,16.70
2019-02-21T15:37:36.245Z,16.60
2019-02-21T15:40:04.761Z,16.60
2019-02-21T15:42:33.284Z,16.60
2019-02-21T15:45:01.607Z,16.60
2019-02-21T15:47:30.108Z,16.60
2019-02-21T15:49:58.080Z,16.60
2019-02-21T15:52:26.747Z,16.50
2019-02-21T15:54:54.886Z,16.40
2019-02-21T15:57:22.950Z,16.40
2019-02-21T15:59:51.008Z,16.40
2019-02-21T16:02:19.225Z,16.40
2019-02-21T16:04:47.440Z,16.30
2019-02-21T16:07:15.877Z,16.30
2019-02-21T16:09:44.269Z,16.30
2019-02-21T16:12:12.650Z,16.20
2019-02-21T16:14:41.571Z,16.20
2019-02-21T16:17:09.930Z,16.20
2019-02-21T16:19:38.339Z,16.10
2019-02-21T16:22:06.393Z,16.00
2019-02-21T16:24:34.250Z,16.00
2019-02-21T16:27:02.238Z,16.00
2019-02-21T16:29:30.901Z,16.00
2019-02-21T16:31:59.002Z,15.90
2019-02-21T16:34:27.044Z,15.80
2019-02-21T16:37:01.991Z,15.80
2019-02-21T16:39:25.069Z,15.70
2019-02-21T16:41:53.231Z,15.70
2019-02-21T16:44:21.870Z,15.60
2019-02-21T16:46:49.875Z,15.50
2019-02-21T16:49:20.381Z,15.40
2019-02-21T16:51:49.909Z,15.30
2019-02-21T16:54:19.604Z,15.40
2019-02-21T16:56:48.019Z,15.30
2019-02-21T16:59:16.119Z,15.20
2019-02-21T17:01:44.910Z,15.20
2019-02-21T17:04:13.150Z,15.10
2019-02-21T17:06:41.541Z,15.00
2019-02-21T17:09:10.381Z,14.90
2019-02-21T17:11:47.961Z,14.80
2019-02-21T17:14:15.907Z,14.70
2019-02-21T17:16:44.246Z,14.60
2019-02-21T17:19:12.483Z,14.50
2019-02-21T17:21:40.739Z,14.40
2019-02-21T17:24:08.829Z,14.40
2019-02-21T17:26:40.194Z,14.40
2019-02-21T17:29:08.142Z,14.30
2019-02-21T17:31:37.283Z,14.20
2019-02-21T17:34:05.450Z,14.20
2019-02-21T17:36:33.957Z,14.10
2019-02-21T17:39:01.819Z,13.90
2019-02-21T17:41:30.503Z,13.90
2019-02-21T17:43:58.887Z,13.80
2019-02-21T17:46:26.952Z,13.60
2019-02-21T17:48:55.474Z,13.60
2019-02-21T17:51:23.795Z,13.40
2019-02-21T17:53:52.735Z,13.30
2019-02-21T17:56:21.346Z,13.20
2019-02-21T17:58:49.534Z,13.10
2019-02-21T18:01:17.874Z,13.00
2019-02-21T18:03:45.953Z,13.00
2019-02-21T18:06:14.642Z,12.90
2019-02-21T18:08:42.942Z,12.90
2019-02-21T18:11:12.588Z,12.80
2019-02-21T18:13:41.238Z,12.70
2019-02-21T18:16:08.921Z,12.70
2019-02-21T18:18:37.683Z,12.60
2019-02-21T18:21:08.208Z,12.50
2019-02-21T18:23:36.585Z,12.40
2019-02-21T18:26:10.144Z,12.30
2019-02-21T18:28:38.286Z,12.10
2019-02-21T18:31:06.330Z,12.00
2019-02-21T18:33:34.734Z,11.80
2019-02-21T18:36:03.097Z,11.70
2019-02-21T18:38:31.219Z,11.80
2019-02-21T18:40:59.249Z,11.70
2019-02-21T18:43:27.180Z,11.50
2019-02-21T18:45:57.519Z,11.40
2019-02-21T18:48:24.995Z,11.30
2019-02-21T18:50:53.226Z,11.30
2019-02-21T18:53:21.086Z,11.10
2019-02-21T18:55:49.808Z,11.00
2019-02-21T18:58:17.894Z,10.90
2019-02-21T19:00:46.271Z,10.80
2019-02-21T19:03:14.477Z,10.80
2019-02-21T19:05:42.405Z,10.70
2019-02-21T19:08:10.783Z,10.70
2019-02-21T19:10:38.871Z,10.70
2019-02-21T19:13:07.838Z,10.80
2019-02-21T19:15:36.461Z,10.80
2019-02-21T19:18:04.443Z,10.80
2019-02-21T19:20:32.489Z,10.70
2019-02-21T19:23:00.505Z,10.80
2019-02-21T19:25:28.838Z,10.60
2019-02-21T19:27:56.949Z,10.50
2019-02-21T19:30:27.900Z,10.20
2019-02-21T19:32:55.820Z,10.20
2019-02-21T19:35:24.213Z,10.10
2019-02-21T19:37:52.599Z,10.20
2019-02-21T19:40:20.969Z,10.20
2019-02-21T19:42:49.017Z,10.40
2019-02-21T19:45:17.762Z,10.40
2019-02-21T19:47:46.158Z,10.40
2019-02-21T19:50:14.445Z,10.30
2019-02-21T19:52:42.852Z,10.20
2019-02-21T19:55:11.097Z,10.10
2019-02-21T19:57:39.589Z,10.00
2019-02-21T20:00:10.122Z,9.80
2019-02-21T20:02:38.557Z,9.70
2019-02-21T20:05:06.747Z,9.40
2019-02-21T20:07:35.243Z,9.50
2019-02-21T20:10:03.855Z,9.40
2019-02-21T20:12:32.068Z,9.20
2019-02-21T20:15:00.343Z,9.20
2019-02-21T20:17:28.520Z,9.30
2019-02-21T20:19:56.957Z,9.20
2019-02-21T20:22:25.538Z,9.00
2019-02-21T20:24:53.727Z,8.90
2019-02-21T20:27:21.666Z,8.80
2019-02-21T20:29:50.103Z,8.70
2019-02-21T20:32:18.222Z,8.60
2019-02-21T20:34:46.485Z,8.50
2019-02-21T20:37:14.892Z,8.50
2019-02-21T20:39:43.256Z,8.40
2019-02-21T20:42:11.645Z,8.30
2019-02-21T20:44:39.823Z,8.10
2019-02-21T20:47:08.379Z,7.90
2019-02-21T20:49:36.466Z,7.80
2019-02-21T20:52:04.914Z,7.90
2019-02-21T20:54:33.378Z,7.90
2019-02-21T20:57:01.595Z,7.90
2019-02-21T20:59:29.766Z,7.70
2019-02-21T21:01:57.761Z,7.60
2019-02-21T21:04:26.143Z,7.50
2019-02-21T21:06:54.222Z,7.40
2019-02-21T21:09:22.441Z,7.30
2019-02-21T21:11:50.424Z,7.30
2019-02-21T21:14:18.934Z,7.50
2019-02-21T21:16:46.782Z,7.60
2019-02-21T21:19:14.979Z,7.60
2019-02-21T21:21:43.330Z,7.50
2019-02-21T21:24:11.970Z,7.40
2019-02-21T21:26:40.715Z,7.30
2019-02-21T21:29:08.803Z,7.10
2019-02-21T21:31:36.700Z,7.00
2019-02-21T21:34:05.230Z,6.90
2019-02-21T21:36:33.497Z,6.80
2019-02-21T21:39:02.081Z,6.70
2019-02-21T21:41:30.470Z,6.60
2019-02-21T21:43:58.577Z,6.50
2019-02-21T21:46:27.015Z,6.50
2019-02-21T21:48:55.081Z,6.60
2019-02-21T21:51:23.415Z,6.50
2019-02-21T21:53:51.466Z,6.40
2019-02-21T21:56:21.574Z,6.30
2019-02-21T21:58:49.470Z,6.20
2019-02-21T22:01:17.808Z,6.30
2019-02-21T22:03:46.310Z,6.30
2019-02-21T22:06:14.362Z,6.30
2019-02-21T22:08:43.038Z,6.20
2019-02-21T22:11:11.126Z,6.00
2019-02-21T22:13:39.705Z,5.90
2019-02-21T22:16:07.913Z,5.80
2019-02-21T22:18:36.598Z,5.70
2019-02-21T22:21:04.642Z,5.60
2019-02-21T22:23:32.810Z,5.50
2019-02-21T22:26:01.065Z,5.50
2019-02-21T22:28:29.180Z,5.40
2019-02-21T22:30:58.191Z,5.30
2019-02-21T22:33:26.529Z,5.20
2019-02-21T22:35:54.922Z,5.10
2019-02-21T22:38:22.973Z,5.00
2019-02-21T22:40:51.670Z,5.00
2019-02-21T22:43:19.717Z,4.90
2019-02-21T22:45:47.798Z,4.90
2019-02-21T22:48:15.891Z,4.80
2019-02-21T22:50:44.253Z,4.70
2019-02-21T22:53:12.644Z,4.50
2019-02-21T22:55:40.796Z,4.40
2019-02-21T22:58:08.765Z,4.30
2019-02-21T23:00:57.950Z,4.30
2019-02-21T23:03:27.357Z,4.20
2019-02-21T23:06:19.854Z,4.30
2019-02-21T23:08:52.455Z,4.30
2019-02-21T23:11:20.833Z,4.30
2019-02-21T23:13:49.026Z,4.30
2019-02-21T23:16:16.878Z,4.40
2019-02-21T23:18:45.264Z,4.50
2019-02-21T23:21:13.344Z,4.60
2019-02-21T23:23:42.920Z,4.50
2019-02-21T23:26:11.635Z,4.50
2019-02-21T23:28:40.104Z,4.50
2019-02-21T23:31:08.221Z,4.50
2019-02-21T23:33:38.969Z,4.50
2019-02-21T23:36:07.378Z,4.40
2019-02-21T23:38:35.361Z,4.40
2019-02-21T23:41:04.035Z,4.40
2019-02-21T23:43:32.131Z,4.30
2019-02-21T23:46:00.285Z,4.20
2019-02-21T23:48:28.571Z,4.10
2019-02-21T23:50:56.692Z,4.10
2019-02-21T23:53:25.834Z,4.10
2019-02-21T23:55:54.134Z,4.10
2019-02-21T23:58:22.081Z,4.00
